Time;durP1;ratioP1;P1;durP2;ratioP2;P2;SDS_P1;SDS_P2;PMS_P1;PMS_P2;Temp;Humidity;BMP_temperature;BMP_pressure;BME280_temperature;BME280_humidity;BME280_pressure;Samples;Min_cycle;Max_cycle;Signal;HPM_P1;HPM_P2
2024/01/05 00:00:29;;;;;;;;;;;;;;;19.25;62.30;98355.03;2089272;28;19935;-64
2024/01/05 00:01:30;;;;;;;;;;;;;;;19.26;62.21;98359.41;2088886;28;20438;-64
2024/01/05 00:02:31;;;;;;;;;;;;;;;19.28;62.04;98363.53;2088178;28;20395;-64
2024/01/05 00:03:32;;;;;;;;;;;;;;;19.26;62.26;98354.84;2090049;28;19935;-64
2024/01/05 00:04:33;;;;;;;;;;;;;;;19.27;62.36;98361.03;2090484;28;19924;-64
2024/01/05 00:05:35;;;;;;;;;;;;;;;19.26;62.18;98362.91;2089888;28;19939;-64
2024/01/05 00:06:36;;;;;;;;;;;;;;;19.26;62.43;98359.41;2089676;28;19932;-65
2024/01/05 00:07:37;;;;;;;;;;;;;;;19.26;62.18;98370.97;2090393;28;19964;-64
2024/01/05 00:08:38;;;;;;;;;;;;;;;19.27;62.39;98364.53;2093271;28;19985;-65
2024/01/05 00:09:39;;;;;;;;;;;;;;;19.26;62.39;98367.47;2091351;28;19929;-65
2024/01/05 00:10:41;;;;;;;;;;;;;;;19.25;62.08;98363.97;2091244;28;19947;-64
2024/01/05 00:11:42;;;;;;;;;;;;;;;19.25;61.97;98368.47;2089986;28;19929;-64
2024/01/05 00:12:44;;;;;;;;;;;;;;;19.24;62.08;98361.47;2092217;28;19924;-64
2024/01/05 00:13:44;;;;;;;;;;;;;;;19.23;62.17;98363.34;2093894;28;19928;-64
2024/01/05 00:14:46;;;;;;;;;;;;;;;19.24;62.23;98361.47;2093900;28;19982;-64
2024/01/05 00:15:47;;;;;;;;;;;;;;;19.24;62.14;98358.78;2089817;28;20008;-64
2024/01/05 00:16:49;;;;;;;;;;;;;;;19.24;62.33;98356.91;2092686;28;19971;-65
2024/01/05 00:17:50;;;;;;;;;;;;;;;19.24;62.17;98361.47;2091117;28;19928;-64
2024/01/05 00:18:51;;;;;;;;;;;;;;;19.24;62.35;98367.66;2086848;28;19933;-64
2024/01/05 00:19:52;;;;;;;;;;;;;;;19.23;62.05;98365.22;2090657;28;20303;-65
2024/01/05 00:20:54;;;;;;;;;;;;;;;19.23;62.14;98360.66;2089575;28;19964;-65
2024/01/05 00:21:54;;;;;;;;;;;;;;;19.23;62.44;98365.22;2090148;28;19932;-64
2024/01/05 00:22:55;;;;;;;;;;;;;;;19.22;62.23;98367.03;2090969;28;19964;-64
2024/01/05 00:23:57;;;;;;;;;;;;;;;19.23;62.39;98363.34;2090507;28;20243;-64
2024/01/05 00:24:58;;;;;;;;;;;;;;;19.23;62.34;98355.28;2089329;28;20020;-64
2024/01/05 00:26:03;;;;;;;;;;;;;;;19.20;62.41;98361.06;2093696;28;20413;-65
2024/01/05 00:27:04;;;;;;;;;;;;;;;19.19;62.21;98356.72;2092968;28;20001;-65
2024/01/05 00:28:05;;;;;;;;;;;;;;;19.18;62.34;98361.28;2094676;28;19978;-65
2024/01/05 00:29:06;;;;;;;;;;;;;;;19.19;62.53;98359.41;2089596;28;19928;-65
2024/01/05 00:30:08;;;;;;;;;;;;;;;19.19;62.51;98362.09;2094072;28;20059;-65
2024/01/05 00:31:10;;;;;;;;;;;;;;;19.20;62.39;98358.38;2090764;28;19940;-64
2024/01/05 00:32:11;;;;;;;;;;;;;;;19.19;62.58;98360.25;2091073;28;19928;-65
2024/01/05 00:33:12;;;;;;;;;;;;;;;19.17;62.55;98354.25;2090013;28;19935;-65
2024/01/05 00:34:12;;;;;;;;;;;;;;;19.17;62.58;98356.94;2090894;28;20424;-65
2024/01/05 00:35:14;;;;;;;;;;;;;;;19.18;62.52;98355.91;2091075;28;19978;-64
2024/01/05 00:36:15;;;;;;;;;;;;;;;19.18;62.53;98349.69;2094012;28;20394;-64
2024/01/05 00:37:15;;;;;;;;;;;;;;;19.16;62.54;98349.09;2090757;28;19959;-64
2024/01/05 00:38:17;;;;;;;;;;;;;;;19.16;62.63;98355.28;2091806;28;19932;-64
2024/01/05 00:39:18;;;;;;;;;;;;;;;19.17;62.47;98351.56;2089627;28;19928;-64
2024/01/05 00:40:19;;;;;;;;;;;;;;;19.20;62.11;98353.84;2092166;28;19967;-65
2024/01/05 00:41:22;;;;;;;;;;;;;;;19.19;62.26;98354.03;2091224;28;19929;-65
2024/01/05 00:42:23;;;;;;;;;;;;;;;19.21;62.42;98357.34;2089401;28;19994;-64
2024/01/05 00:43:24;;;;;;;;;;;;;;;19.19;62.15;98354.88;2089940;28;21930;-64
2024/01/05 00:44:27;;;;;;;;;;;;;;;19.21;62.03;98362.72;2087779;28;19972;-65
2024/01/05 00:45:27;;;;;;;;;;;;;;;19.21;62.25;98346.59;2087971;28;20204;-64
2024/01/05 00:46:29;;;;;;;;;;;;;;;19.22;61.99;98352.78;2090223;28;20276;-64
2024/01/05 00:47:30;;;;;;;;;;;;;;;19.24;62.42;98351.53;2090604;28;19925;-64
2024/01/05 00:48:31;;;;;;;;;;;;;;;19.21;62.22;98349.28;2090586;28;20023;-64
2024/01/05 00:49:32;;;;;;;;;;;;;;;19.21;62.17;98346.59;2090680;28;19924;-64
2024/01/05 00:50:33;;;;;;;;;;;;;;;19.23;62.41;98344.50;2091720;28;20358;-64
2024/01/05 00:51:34;;;;;;;;;;;;;;;19.25;62.42;98344.28;2088451;28;19929;-65
2024/01/05 00:52:36;;;;;;;;;;;;;;;19.26;62.04;98343.25;2092563;28;20378;-64
2024/01/05 00:53:36;;;;;;;;;;;;;;;19.26;62.10;98338.72;2091931;28;19925;-64
2024/01/05 00:54:38;;;;;;;;;;;;;;;19.27;62.20;98347.59;2093138;28;21201;-64
2024/01/05 00:55:38;;;;;;;;;;;;;;;19.27;62.10;98345.72;2089946;28;19928;-65
2024/01/05 00:56:40;;;;;;;;;;;;;;;19.26;61.96;98341.41;2088896;28;20398;-64
2024/01/05 00:57:42;;;;;;;;;;;;;;;19.27;62.42;98343.03;2089664;28;19933;-64
2024/01/05 00:58:43;;;;;;;;;;;;;;;19.28;62.19;98335.78;2090398;28;19924;-64
2024/01/05 00:59:44;;;;;;;;;;;;;;;19.29;62.25;98334.75;2089629;28;19971;-64
2024/01/05 01:00:45;;;;;;;;;;;;;;;19.29;62.16;98338.28;2090999;28;19928;-64
2024/01/05 01:01:46;;;;;;;;;;;;;;;19.28;62.21;98336.63;2089435;28;19997;-64
2024/01/05 01:02:47;;;;;;;;;;;;;;;19.27;62.13;98331.47;2094472;28;20351;-64
2024/01/05 01:03:49;;;;;;;;;;;;;;;19.27;62.37;98329.59;2091407;28;19971;-64
2024/01/05 01:05:09;;;;;;;;;;;;;;;19.25;62.08;98326.31;2089311;28;19928;-64
2024/01/05 01:06:31;;;;;;;;;;;;;;;19.26;62.02;98329.81;2066930;28;19933;-64
2024/01/05 01:07:32;;;;;;;;;;;;;;;19.25;62.32;98336.22;2091056;28;19928;-64
2024/01/05 01:08:34;;;;;;;;;;;;;;;19.24;62.21;98327.34;2089928;28;20347;-64
2024/01/05 01:09:34;;;;;;;;;;;;;;;19.25;62.25;98330.84;2089460;28;19948;-64
2024/01/05 01:10:36;;;;;;;;;;;;;;;19.23;62.39;98328.38;2089791;28;19967;-64
2024/01/05 01:11:36;;;;;;;;;;;;;;;19.24;62.38;98326.50;2090237;28;20419;-64
2024/01/05 01:12:39;;;;;;;;;;;;;;;19.22;62.27;98321.34;2090581;28;20068;-65
2024/01/05 01:13:40;;;;;;;;;;;;;;;19.23;62.21;98327.56;2091432;28;19924;-64
2024/01/05 01:14:43;;;;;;;;;;;;;;;19.23;62.32;98325.69;2087219;28;20390;-65
2024/01/05 01:15:43;;;;;;;;;;;;;;;19.23;62.31;98316.81;2091406;28;19997;-64
2024/01/05 01:16:45;;;;;;;;;;;;;;;19.23;61.92;98320.31;2090318;28;19928;-64
2024/01/05 01:17:45;;;;;;;;;;;;;;;19.22;62.27;98323.19;2091406;28;19932;-64
2024/01/05 01:18:47;;;;;;;;;;;;;;;19.22;62.06;98320.50;2089785;28;19967;-64
2024/01/05 01:19:47;;;;;;;;;;;;;;;19.24;62.07;98326.50;2091424;28;19940;-64
2024/01/05 01:20:49;;;;;;;;;;;;;;;19.23;62.06;98323.00;2090547;28;20388;-64
2024/01/05 01:21:50;;;;;;;;;;;;;;;19.22;62.14;98318.66;2091678;28;20320;-65
2024/01/05 01:22:51;;;;;;;;;;;;;;;19.21;62.09;98319.69;2084390;28;19951;-64
2024/01/05 01:23:52;;;;;;;;;;;;;;;19.22;62.17;98324.03;2087768;28;19940;-64
2024/01/05 01:24:53;;;;;;;;;;;;;;;19.19;62.10;98316.38;2088209;28;19932;-65
2024/01/05 01:25:54;;;;;;;;;;;;;;;19.19;62.28;98316.38;2090738;28;19932;-65
2024/01/05 01:26:54;;;;;;;;;;;;;;;19.19;62.38;98317.25;2089136;28;20023;-65
2024/01/05 01:27:58;;;;;;;;;;;;;;;19.19;61.94;98322.63;2090545;28;20061;-64
2024/01/05 01:28:58;;;;;;;;;;;;;;;19.21;62.28;98314.31;2091607;28;20001;-64
2024/01/05 01:29:59;;;;;;;;;;;;;;;19.19;62.22;98305.63;2090482;28;19948;-65
2024/01/05 01:31:01;;;;;;;;;;;;;;;19.16;62.18;98314.97;2090228;28;19924;-65
2024/01/05 01:32:02;;;;;;;;;;;;;;;19.17;62.55;98308.56;2087015;28;19929;-65
2024/01/05 01:33:04;;;;;;;;;;;;;;;19.16;62.37;98306.88;2091014;28;19933;-64
2024/01/05 01:34:05;;;;;;;;;;;;;;;19.16;62.02;98306.88;2088074;28;19928;-65
2024/01/05 01:35:07;;;;;;;;;;;;;;;19.14;62.44;98309.00;2091720;28;20556;-65
2024/01/05 01:36:07;;;;;;;;;;;;;;;19.16;62.47;98308.75;2087693;28;19925;-65
2024/01/05 01:37:09;;;;;;;;;;;;;;;19.15;62.38;98304.44;2087735;28;19998;-65
2024/01/05 01:38:09;;;;;;;;;;;;;;;19.15;62.13;98299.06;2091642;28;19936;-65
2024/01/05 01:39:11;;;;;;;;;;;;;;;19.16;62.11;98303.38;2089404;28;20019;-65
2024/01/05 01:40:12;;;;;;;;;;;;;;;19.14;62.23;98302.78;2088082;28;19964;-65
2024/01/05 01:41:14;;;;;;;;;;;;;;;19.12;62.49;98303.00;2090591;28;20464;-65
2024/01/05 01:42:14;;;;;;;;;;;;;;;19.12;62.21;98303.00;2089626;28;20424;-63
2024/01/05 01:43:22;;;;;;;;;;;;;;;19.10;62.53;98299.69;2090803;28;20015;-65
2024/01/05 01:44:23;;;;;;;;;;;;;;;19.09;62.52;98297.22;2089049;28;19977;-64
2024/01/05 01:45:24;;;;;;;;;;;;;;;19.12;62.54;98299.50;2087387;28;20435;-65
2024/01/05 01:46:25;;;;;;;;;;;;;;;19.12;62.21;98299.50;2086908;28;19929;-64
2024/01/05 01:47:28;;;;;;;;;;;;;;;19.12;62.29;98297.63;2088276;28;19929;-65
2024/01/05 01:48:29;;;;;;;;;;;;;;;19.13;62.28;98299.25;2089076;28;21032;-63
2024/01/05 01:49:31;;;;;;;;;;;;;;;19.12;62.24;98292.25;2089761;28;19928;-64
2024/01/05 01:50:32;;;;;;;;;;;;;;;19.13;62.29;98287.69;2091270;28;19952;-66
2024/01/05 01:51:34;;;;;;;;;;;;;;;19.13;62.39;98291.19;2090422;28;20019;-64
2024/01/05 01:52:36;;;;;;;;;;;;;;;19.14;62.35;98297.41;2087903;28;20045;-64
2024/01/05 01:53:38;;;;;;;;;;;;;;;19.12;62.36;98286.06;2087930;28;19925;-64
2024/01/05 01:54:39;;;;;;;;;;;;;;;19.13;62.20;98283.13;2092019;28;19936;-64
2024/01/05 01:55:41;;;;;;;;;;;;;;;19.12;62.32;98278.81;2090314;28;20019;-65
2024/01/05 01:56:43;;;;;;;;;;;;;;;19.13;62.52;98283.13;2090706;28;19924;-64
2024/01/05 01:57:44;;;;;;;;;;;;;;;19.12;62.40;98278.81;2090387;28;20031;-64
2024/01/05 01:58:47;;;;;;;;;;;;;;;19.13;62.20;98283.13;2090661;28;20383;-64
2024/01/05 01:59:48;;;;;;;;;;;;;;;19.14;62.07;98286.66;2088795;28;19932;-65
2024/01/05 02:00:50;;;;;;;;;;;;;;;19.15;62.12;98281.06;2087884;28;19967;-65
2024/01/05 02:01:51;;;;;;;;;;;;;;;19.11;62.02;98285.22;2092210;28;19924;-64
2024/01/05 02:02:52;;;;;;;;;;;;;;;19.12;62.16;98283.34;2087263;28;19953;-64
2024/01/05 02:03:53;;;;;;;;;;;;;;;19.10;62.27;98272.81;2087151;28;19925;-65
2024/01/05 02:04:55;;;;;;;;;;;;;;;19.12;62.34;98276.13;2090213;28;20460;-65
2024/01/05 02:05:56;;;;;;;;;;;;;;;19.11;62.05;98277.16;2088771;28;19932;-65
2024/01/05 02:06:58;;;;;;;;;;;;;;;19.11;62.26;98276.31;2088357;28;19978;-65
2024/01/05 02:07:58;;;;;;;;;;;;;;;19.12;62.46;98272.59;2092846;28;20303;-64
2024/01/05 02:09:00;;;;;;;;;;;;;;;19.13;62.18;98271.56;2089230;28;19931;-65
2024/01/05 02:10:01;;;;;;;;;;;;;;;19.10;62.21;98266.63;2089063;28;19940;-65
2024/01/05 02:11:03;;;;;;;;;;;;;;;19.10;62.23;98262.06;2089980;28;20563;-64
2024/01/05 02:12:04;;;;;;;;;;;;;;;19.10;62.38;98259.38;2089063;28;19928;-64
2024/01/05 02:13:05;;;;;;;;;;;;;;;19.09;62.11;98262.28;2089946;28;20486;-64
2024/01/05 02:14:07;;;;;;;;;;;;;;;19.10;62.44;98261.25;2089423;28;19936;-64
2024/01/05 02:15:09;;;;;;;;;;;;;;;19.09;62.38;98262.28;2087238;28;19943;-65
2024/01/05 02:16:10;;;;;;;;;;;;;;;19.09;62.05;98256.91;2089432;28;19928;-64
2024/01/05 02:17:26;;;;;;;;;;;;;;;19.08;62.22;98260.63;2090432;28;19955;-65
2024/01/05 02:18:27;;;;;;;;;;;;;;;19.05;62.40;98253.81;2084826;28;19932;-65
2024/01/05 02:19:28;;;;;;;;;;;;;;;19.05;62.46;98261.88;2087091;28;19999;-63
2024/01/05 02:20:29;;;;;;;;;;;;;;;19.04;62.36;98260.25;2084673;28;19928;-65
2024/01/05 02:21:33;;;;;;;;;;;;;;;19.07;62.42;98253.59;2089005;28;19972;-65
2024/01/05 02:22:35;;;;;;;;;;;;;;;19.04;62.38;98252.19;2088015;28;20065;-65
2024/01/05 02:23:37;;;;;;;;;;;;;;;19.04;62.46;98256.72;2089088;28;19936;-65
2024/01/05 02:24:39;;;;;;;;;;;;;;;19.03;62.27;98260.44;2088064;28;19932;-65
2024/01/05 02:25:39;;;;;;;;;;;;;;;19.04;62.07;98262.94;2088319;28;19939;-64
2024/01/05 02:26:41;;;;;;;;;;;;;;;19.04;62.41;98251.34;2088789;28;19967;-64
2024/01/05 02:27:41;;;;;;;;;;;;;;;19.01;62.47;98254.47;2090690;28;20600;-64
2024/01/05 02:28:43;;;;;;;;;;;;;;;19.00;62.47;98248.28;2088178;28;20433;-65
2024/01/05 02:29:44;;;;;;;;;;;;;;;19.01;62.55;98249.91;2090795;28;19944;-65
2024/01/05 02:30:47;;;;;;;;;;;;;;;19.00;62.54;98255.50;2088874;28;20221;-64
2024/01/05 02:31:48;;;;;;;;;;;;;;;19.00;62.29;98253.66;2091841;28;20395;-65
2024/01/05 02:32:50;;;;;;;;;;;;;;;19.00;62.38;98252.81;2087100;28;20504;-64
2024/01/05 02:33:51;;;;;;;;;;;;;;;18.98;62.25;98256.53;2088727;28;20259;-65
2024/01/05 02:34:52;;;;;;;;;;;;;;;18.98;62.46;98255.72;2085892;28;20447;-65
2024/01/05 02:35:53;;;;;;;;;;;;;;;18.97;62.26;98249.53;2089852;28;20299;-65
2024/01/05 02:36:54;;;;;;;;;;;;;;;18.96;62.25;98252.44;2089686;28;19925;-64
2024/01/05 02:37:55;;;;;;;;;;;;;;;18.97;62.45;98248.69;2089357;28;19929;-65
2024/01/05 02:38:58;;;;;;;;;;;;;;;18.97;62.21;98244.16;2088618;28;19956;-64
2024/01/05 02:39:58;;;;;;;;;;;;;;;18.96;62.32;98247.88;2085762;28;19924;-65
2024/01/05 02:41:01;;;;;;;;;;;;;;;18.97;62.34;98244.16;2090329;28;19959;-64
2024/01/05 02:42:01;;;;;;;;;;;;;;;18.96;62.26;98241.66;2090746;28;19932;-64
2024/01/05 02:43:03;;;;;;;;;;;;;;;18.93;62.47;98240.25;2089767;28;19967;-65
2024/01/05 02:44:04;;;;;;;;;;;;;;;18.93;62.65;98234.88;2091444;28;20410;-64
2024/01/05 02:45:06;;;;;;;;;;;;;;;18.94;62.22;98233.00;2089256;28;19974;-64
2024/01/05 02:46:09;;;;;;;;;;;;;;;18.90;62.66;98235.28;2089502;28;19925;-65
2024/01/05 02:47:10;;;;;;;;;;;;;;;18.93;62.46;98231.34;2089990;28;19939;-65
2024/01/05 02:48:11;;;;;;;;;;;;;;;18.92;62.52;98230.53;2088549;28;20409;-64
2024/01/05 02:49:12;;;;;;;;;;;;;;;18.89;62.26;98228.28;2088922;28;19955;-65
2024/01/05 02:50:13;;;;;;;;;;;;;;;18.91;62.67;98228.06;2092848;28;20008;-65
2024/01/05 02:51:14;;;;;;;;;;;;;;;18.91;62.40;98228.88;2088884;28;19925;-64
2024/01/05 02:52:16;;;;;;;;;;;;;;;18.91;62.33;98226.19;2090254;28;19925;-65
2024/01/05 02:53:17;;;;;;;;;;;;;;;18.93;62.50;98217.91;2085872;28;19951;-64
2024/01/05 02:54:20;;;;;;;;;;;;;;;18.96;62.53;98220.19;2086881;28;19933;-65
2024/01/05 02:55:20;;;;;;;;;;;;;;;18.95;62.47;98202.41;2088911;28;19924;-65
2024/01/05 02:56:22;;;;;;;;;;;;;;;18.98;62.37;98208.16;2090476;28;19986;-65
2024/01/05 02:57:24;;;;;;;;;;;;;;;19.00;61.90;98204.44;2091107;28;20410;-64
2024/01/05 02:58:25;;;;;;;;;;;;;;;19.04;62.32;98209.16;2090033;28;19939;-65
2024/01/05 02:59:26;;;;;;;;;;;;;;;19.05;61.93;98212.69;2089901;28;20602;-64
2024/01/05 03:00:26;;;;;;;;;;;;;;;19.07;61.76;98203.34;2090856;28;19968;-64
2024/01/05 03:01:29;;;;;;;;;;;;;;;19.09;62.09;98203.97;2090321;28;19928;-64
2024/01/05 03:02:29;;;;;;;;;;;;;;;19.10;62.17;98197.53;2086685;28;19935;-64
2024/01/05 03:03:31;;;;;;;;;;;;;;;19.10;62.19;98199.41;2088393;28;19960;-64
2024/01/05 03:04:31;;;;;;;;;;;;;;;19.11;61.76;98201.91;2085959;28;20451;-65
2024/01/05 03:05:33;;;;;;;;;;;;;;;19.12;62.10;98198.16;2088321;28;19994;-64
2024/01/05 03:06:33;;;;;;;;;;;;;;;19.12;61.90;98194.66;2088384;28;20688;-64
2024/01/05 03:07:35;;;;;;;;;;;;;;;19.13;62.17;98201.66;2088265;28;20453;-64
2024/01/05 03:08:36;;;;;;;;;;;;;;;19.13;62.16;98197.09;2091289;28;19931;-65
2024/01/05 03:09:39;;;;;;;;;;;;;;;19.14;61.80;98198.78;2089469;28;20430;-65
2024/01/05 03:10:39;;;;;;;;;;;;;;;19.14;62.16;98195.25;2088787;28;20426;-65
2024/01/05 03:11:41;;;;;;;;;;;;;;;19.15;62.22;98191.53;2090935;28;20015;-65
2024/01/05 03:12:41;;;;;;;;;;;;;;;19.13;62.06;98193.59;2091031;28;19924;-64
2024/01/05 03:13:43;;;;;;;;;;;;;;;19.15;61.83;98194.22;2091673;28;20046;-64
2024/01/05 03:14:44;;;;;;;;;;;;;;;19.14;62.22;98196.09;2089312;28;19931;-65
2024/01/05 03:15:45;;;;;;;;;;;;;;;19.16;62.16;98193.16;2090170;28;19931;-64
2024/01/05 03:16:46;;;;;;;;;;;;;;;19.16;61.87;98177.03;2088361;28;19924;-65
2024/01/05 03:17:48;;;;;;;;;;;;;;;19.15;62.01;98175.41;2088543;28;20592;-64
2024/01/05 03:18:49;;;;;;;;;;;;;;;19.16;61.84;98175.16;2087995;28;19979;-65
2024/01/05 03:19:51;;;;;;;;;;;;;;;19.16;61.94;98175.16;2089357;28;20070;-65
2024/01/05 03:20:51;;;;;;;;;;;;;;;19.15;61.90;98162.78;2088330;28;19929;-64
2024/01/05 03:21:53;;;;;;;;;;;;;;;19.18;61.79;98166.88;2084660;28;20451;-65
2024/01/05 03:22:53;;;;;;;;;;;;;;;19.18;62.06;98170.41;2086250;28;19975;-65
2024/01/05 03:23:55;;;;;;;;;;;;;;;19.19;62.03;98176.59;2087952;28;20403;-64
2024/01/05 03:24:57;;;;;;;;;;;;;;;19.17;61.87;98179.50;2087251;28;19929;-65
2024/01/05 03:25:58;;;;;;;;;;;;;;;19.20;61.85;98170.19;2089904;28;19972;-64
2024/01/05 03:26:59;;;;;;;;;;;;;;;19.20;61.92;98179.06;2089084;28;19928;-65
2024/01/05 03:28:01;;;;;;;;;;;;;;;19.19;61.76;98171.22;2090168;28;20027;-65
2024/01/05 03:29:01;;;;;;;;;;;;;;;19.19;62.09;98160.47;2088087;28;19928;-65
2024/01/05 03:30:02;;;;;;;;;;;;;;;19.18;62.04;98162.34;2087457;28;20392;-65
2024/01/05 03:31:04;;;;;;;;;;;;;;;19.20;62.03;98154.06;2087881;28;20060;-65
2024/01/05 03:32:04;;;;;;;;;;;;;;;19.19;61.76;98149.72;2088368;28;19929;-65
2024/01/05 03:33:05;;;;;;;;;;;;;;;19.16;62.05;98155.53;2088570;28;20004;-64
2024/01/05 03:34:07;;;;;;;;;;;;;;;19.18;61.87;98158.81;2090213;28;19925;-65
2024/01/05 03:35:07;;;;;;;;;;;;;;;19.18;62.01;98156.97;2088298;28;20384;-65
2024/01/05 03:36:09;;;;;;;;;;;;;;;19.19;61.83;98157.78;2092067;28;19959;-64
2024/01/05 03:37:10;;;;;;;;;;;;;;;19.18;61.94;98150.75;2089814;28;19936;-65
2024/01/05 03:38:11;;;;;;;;;;;;;;;19.16;61.84;98150.97;2091283;28;20020;-65
2024/01/05 03:39:12;;;;;;;;;;;;;;;19.16;61.81;98150.97;2089074;28;20303;-64
2024/01/05 03:40:15;;;;;;;;;;;;;;;19.16;61.88;98150.97;2090005;28;20011;-64
2024/01/05 03:41:15;;;;;;;;;;;;;;;19.15;61.86;98151.19;2088635;28;19933;-64
2024/01/05 03:42:17;;;;;;;;;;;;;;;19.16;61.86;98152.84;2090224;28;19968;-65
2024/01/05 03:43:18;;;;;;;;;;;;;;;19.16;61.78;98150.16;2084939;28;20402;-65
2024/01/05 03:44:21;;;;;;;;;;;;;;;19.15;62.14;98151.19;2092008;28;20157;-64
2024/01/05 03:45:21;;;;;;;;;;;;;;;19.14;61.96;98150.38;2088961;28;19968;-65
2024/01/05 03:46:23;;;;;;;;;;;;;;;19.14;61.95;98144.19;2088397;28;19932;-64
2024/01/05 03:47:24;;;;;;;;;;;;;;;19.15;61.85;98149.34;2087564;28;19932;-65
2024/01/05 03:48:26;;;;;;;;;;;;;;;19.15;61.74;98153.88;2088383;28;20426;-65
2024/01/05 03:49:27;;;;;;;;;;;;;;;19.13;62.15;98145.22;2088131;28;19955;-65
2024/01/05 03:50:28;;;;;;;;;;;;;;;19.13;62.05;98150.59;2089357;28;19925;-62
2024/01/05 03:51:29;;;;;;;;;;;;;;;19.13;61.98;98161.34;2087684;28;19932;-64
2024/01/05 03:52:31;;;;;;;;;;;;;;;19.13;61.72;98155.97;2087541;28;19933;-64
2024/01/05 03:53:31;;;;;;;;;;;;;;;19.11;62.16;98152.66;2086472;28;20506;-64
2024/01/05 03:54:33;;;;;;;;;;;;;;;19.12;62.04;98157.84;2086270;28;20015;-65
2024/01/05 03:55:35;;;;;;;;;;;;;;;19.10;62.04;98151.03;2087184;28;19936;-64
2024/01/05 03:56:40;;;;;;;;;;;;;;;19.09;62.18;98152.09;2088274;28;20019;-65
2024/01/05 03:57:41;;;;;;;;;;;;;;;19.08;62.29;98153.91;2089829;28;19978;-65
2024/01/05 03:58:42;;;;;;;;;;;;;;;19.09;62.01;98144.84;2086681;28;19925;-65
2024/01/05 03:59:43;;;;;;;;;;;;;;;19.09;62.13;98147.53;2090509;28;19924;-64
2024/01/05 04:00:45;;;;;;;;;;;;;;;19.09;62.13;98150.22;2085804;28;20371;-65
2024/01/05 04:01:46;;;;;;;;;;;;;;;19.09;62.11;98149.41;2090318;28;19933;-65
2024/01/05 04:02:48;;;;;;;;;;;;;;;19.07;62.21;98152.28;2088479;28;19933;-65
2024/01/05 04:03:48;;;;;;;;;;;;;;;19.08;62.04;98150.41;2085706;28;19932;-65
2024/01/05 04:04:50;;;;;;;;;;;;;;;19.06;62.16;98149.84;2088218;28;20383;-64
2024/01/05 04:05:50;;;;;;;;;;;;;;;19.05;62.22;98149.00;2089511;28;19935;-65
2024/01/05 04:06:52;;;;;;;;;;;;;;;19.05;62.27;98153.53;2085584;28;20184;-65
2024/01/05 04:07:52;;;;;;;;;;;;;;;19.03;62.18;98152.94;2087840;28;20332;-65
2024/01/05 04:08:54;;;;;;;;;;;;;;;19.05;62.31;98156.22;2087475;28;19964;-65
2024/01/05 04:09:55;;;;;;;;;;;;;;;19.03;62.24;98153.78;2088718;28;19940;-65
2024/01/05 04:10:58;;;;;;;;;;;;;;;19.05;62.17;98158.91;2086660;28;20207;-65
2024/01/05 04:11:58;;;;;;;;;;;;;;;19.05;62.10;98158.91;2086009;28;20414;-65
2024/01/05 04:13:00;;;;;;;;;;;;;;;19.05;62.19;98153.53;2087688;28;19961;-65
2024/01/05 04:14:01;;;;;;;;;;;;;;;19.06;61.78;98149.84;2088837;28;19933;-64
2024/01/05 04:15:01;;;;;;;;;;;;;;;19.04;61.82;98152.72;2086952;28;20535;-65
2024/01/05 04:16:03;;;;;;;;;;;;;;;19.05;61.90;98149.00;2084325;28;19928;-65
2024/01/05 04:17:04;;;;;;;;;;;;;;;19.04;61.89;98151.91;2087391;28;19967;-65
2024/01/05 04:18:04;;;;;;;;;;;;;;;19.03;62.21;98144.88;2086600;28;19933;-65
2024/01/05 04:19:08;;;;;;;;;;;;;;;19.03;62.13;98144.88;2087818;28;19937;-65
2024/01/05 04:20:09;;;;;;;;;;;;;;;19.05;62.07;98148.16;2089465;28;19928;-65
2024/01/05 04:21:11;;;;;;;;;;;;;;;19.03;62.22;98151.09;2086515;28;21196;-64
2024/01/05 04:22:11;;;;;;;;;;;;;;;19.04;62.03;98141.16;2088721;28;20012;-65
2024/01/05 04:23:13;;;;;;;;;;;;;;;19.05;61.86;98143.59;2084304;28;19940;-65
2024/01/05 04:24:14;;;;;;;;;;;;;;;19.05;61.86;98137.41;2088987;28;19928;-64
2024/01/05 04:25:15;;;;;;;;;;;;;;;19.06;62.16;98139.09;2086408;28;20387;-64
2024/01/05 04:26:17;;;;;;;;;;;;;;;19.05;61.97;98132.03;2088396;28;19931;-64
2024/01/05 04:27:19;;;;;;;;;;;;;;;19.05;62.01;98137.41;2086025;28;19960;-64
2024/01/05 04:28:21;;;;;;;;;;;;;;;19.04;61.83;98135.78;2085066;28;19928;-65
2024/01/05 04:29:22;;;;;;;;;;;;;;;19.04;62.14;98128.53;2083765;28;19964;-65
2024/01/05 04:30:24;;;;;;;;;;;;;;;19.01;62.21;98131.66;2085650;28;20393;-65
2024/01/05 04:31:24;;;;;;;;;;;;;;;19.03;61.93;98134.13;2081737;28;20414;-65
2024/01/05 04:32:26;;;;;;;;;;;;;;;19.04;61.86;98130.41;2086464;28;19971;-65
2024/01/05 04:33:26;;;;;;;;;;;;;;;19.05;62.16;98123.97;2090380;28;19932;-65
2024/01/05 04:34:27;;;;;;;;;;;;;;;19.03;61.90;98132.28;2087776;28;20399;-65
2024/01/05 04:35:29;;;;;;;;;;;;;;;19.04;61.75;98131.22;2085902;28;19936;-63
2024/01/05 04:36:31;;;;;;;;;;;;;;;19.02;61.76;98130.59;2079212;28;19936;-64
2024/01/05 04:37:31;;;;;;;;;;;;;;;19.03;61.79;98134.13;2080682;28;19928;-64
2024/01/05 04:38:34;;;;;;;;;;;;;;;19.04;61.80;98133.09;2076507;28;20865;-65
2024/01/05 04:39:35;;;;;;;;;;;;;;;19.02;61.78;98130.59;2078521;28;19925;-64
2024/01/05 04:40:36;;;;;;;;;;;;;;;19.04;61.81;98127.72;2078054;28;19931;-65
2024/01/05 04:41:38;;;;;;;;;;;;;;;19.03;61.75;98121.53;2079548;28;20288;-64
2024/01/05 04:42:40;;;;;;;;;;;;;;;19.05;62.07;98123.97;2079110;28;19929;-65
2024/01/05 04:43:41;;;;;;;;;;;;;;;19.05;61.67;98122.09;2079555;28;22379;-65
2024/01/05 04:44:42;;;;;;;;;;;;;;;19.05;61.85;98110.53;2080325;28;19971;-65
2024/01/05 04:45:43;;;;;;;;;;;;;;;19.05;61.92;98115.91;2077245;28;20398;-64
2024/01/05 04:46:45;;;;;;;;;;;;;;;19.04;61.63;98115.09;2076866;28;20023;-65
2024/01/05 04:47:46;;;;;;;;;;;;;;;19.04;62.08;98106.22;2076048;28;19929;-65
2024/01/05 04:48:47;;;;;;;;;;;;;;;19.04;62.08;98098.97;2082048;28;19940;-65
2024/01/05 04:49:48;;;;;;;;;;;;;;;19.05;61.72;98100.59;2079031;28;19933;-65
2024/01/05 04:50:50;;;;;;;;;;;;;;;19.04;61.68;98106.22;2078435;28;19960;-65
2024/01/05 04:51:50;;;;;;;;;;;;;;;19.05;61.80;98105.16;2078085;28;20388;-65
2024/01/05 04:52:52;;;;;;;;;;;;;;;19.03;61.93;98101.88;2078467;28;19992;-65
2024/01/05 04:53:52;;;;;;;;;;;;;;;19.04;62.00;98095.47;2079621;28;20300;-65
2024/01/05 04:54:54;;;;;;;;;;;;;;;19.05;61.77;98099.78;2080530;28;20007;-65
2024/01/05 04:55:55;;;;;;;;;;;;;;;19.04;61.95;98092.78;2079931;28;19968;-64
2024/01/05 04:56:58;;;;;;;;;;;;;;;19.05;62.07;98095.22;2077473;28;20440;-65
2024/01/05 04:58:00;;;;;;;;;;;;;;;19.05;61.79;98089.03;2080644;28;19933;-65
2024/01/05 04:59:00;;;;;;;;;;;;;;;19.03;62.10;98093.81;2082598;28;20781;-65
2024/01/05 05:00:02;;;;;;;;;;;;;;;19.03;61.83;98091.97;2082887;28;19925;-65
2024/01/05 05:01:03;;;;;;;;;;;;;;;19.03;61.90;98097.34;2080210;28;19982;-65
2024/01/05 05:02:05;;;;;;;;;;;;;;;19.04;62.00;98101.66;2082887;28;19951;-65
2024/01/05 05:03:05;;;;;;;;;;;;;;;19.03;61.91;98101.88;2077743;28;19929;-65
2024/01/05 05:04:07;;;;;;;;;;;;;;;19.03;61.87;98102.72;2081626;28;19960;-65
2024/01/05 05:05:08;;;;;;;;;;;;;;;19.02;62.05;98097.53;2081840;28;19928;-65
2024/01/05 05:06:08;;;;;;;;;;;;;;;19.01;61.87;98090.53;2081035;28;20040;-65
2024/01/05 05:07:10;;;;;;;;;;;;;;;19.01;61.87;98096.72;2079266;28;19932;-63
2024/01/05 05:08:13;;;;;;;;;;;;;;;19.02;61.77;98097.53;2081293;28;19933;-65
2024/01/05 05:09:13;;;;;;;;;;;;;;;19.01;61.96;98106.66;2077809;28;20648;-65
2024/01/05 05:10:15;;;;;;;;;;;;;;;19.00;61.79;98102.31;2083790;28;19933;-65
2024/01/05 05:11:16;;;;;;;;;;;;;;;19.01;61.67;98098.59;2078573;28;19929;-65
2024/01/05 05:12:19;;;;;;;;;;;;;;;19.02;61.94;98102.91;2081631;28;19928;-64
2024/01/05 05:13:20;;;;;;;;;;;;;;;18.98;62.07;98100.66;2076366;28;19939;-64
2024/01/05 05:14:21;;;;;;;;;;;;;;;18.99;61.95;98093.44;2078561;28;20374;-65
2024/01/05 05:15:22;;;;;;;;;;;;;;;18.97;61.85;98093.66;2080080;28;21123;-65
2024/01/05 05:16:23;;;;;;;;;;;;;;;18.97;61.85;98099.03;2082834;28;19964;-65
2024/01/05 05:17:24;;;;;;;;;;;;;;;18.97;62.10;98104.41;2080215;28;19933;-65
2024/01/05 05:18:26;;;;;;;;;;;;;;;18.96;62.13;98104.63;2079560;28;20031;-65
2024/01/05 05:19:26;;;;;;;;;;;;;;;18.96;62.01;98100.06;2078184;28;19936;-65
2024/01/05 05:20:28;;;;;;;;;;;;;;;18.97;61.74;98100.88;2074813;28;20007;-65